createdAt,value
2019-05-23T00:02:28.259Z,38.60
2019-05-23T00:04:58.090Z,35.20
2019-05-23T00:07:28.271Z,37.63
2019-05-23T00:09:58.474Z,41.40
2019-05-23T00:12:43.602Z,40.43
2019-05-23T00:15:17.629Z,35.73
2019-05-23T00:17:46.332Z,36.87
2019-05-23T00:20:14.554Z,43.07
2019-05-23T00:22:44.601Z,43.67
2019-05-23T00:25:14.019Z,46.53
2019-05-23T00:27:43.398Z,41.70
2019-05-23T00:30:13.503Z,40.73
2019-05-23T00:32:47.566Z,56.40
2019-05-23T00:35:17.114Z,46.67
2019-05-23T00:37:45.993Z,54.57
2019-05-23T00:40:16.639Z,47.50
2019-05-23T00:42:45.487Z,42.13
2019-05-23T00:45:15.251Z,37.53
2019-05-23T00:47:43.441Z,37.77
2019-05-23T00:50:13.959Z,43.47
2019-05-23T00:52:42.578Z,37.30
2019-05-23T00:55:12.413Z,35.87
2019-05-23T00:57:41.823Z,44.10
2019-05-23T01:00:11.854Z,37.00
2019-05-23T01:02:40.541Z,37.40
2019-05-23T01:05:10.275Z,41.33
2019-05-23T01:07:40.191Z,49.23
2019-05-23T01:10:11.101Z,45.40
2019-05-23T01:12:40.215Z,49.00
2019-05-23T01:15:09.762Z,45.27
2019-05-23T01:17:38.417Z,48.47
2019-05-23T01:20:09.042Z,51.13
2019-05-23T01:22:37.585Z,52.07
2019-05-23T01:25:07.618Z,47.70
2019-05-23T01:27:36.012Z,48.80
2019-05-23T01:30:07.747Z,49.97
2019-05-23T01:32:38.553Z,45.23
2019-05-23T01:35:08.811Z,49.93
2019-05-23T01:37:38.002Z,47.47
2019-05-23T01:40:10.695Z,46.03
2019-05-23T01:42:40.056Z,54.07
2019-05-23T01:45:09.701Z,50.13
2019-05-23T01:47:37.962Z,49.97
2019-05-23T01:50:07.655Z,48.63
2019-05-23T01:52:35.941Z,49.80
2019-05-23T01:55:06.353Z,43.33
2019-05-23T01:57:34.899Z,49.17
2019-05-23T02:00:10.503Z,55.17
2019-05-23T02:02:36.166Z,46.93
2019-05-23T02:05:06.164Z,53.97
2019-05-23T02:07:34.895Z,50.93
2019-05-23T02:10:04.887Z,54.07
2019-05-23T02:12:33.501Z,48.03
2019-05-23T02:15:02.470Z,47.83
2019-05-23T02:17:31.305Z,46.97
2019-05-23T02:19:59.485Z,49.73
2019-05-23T02:22:28.304Z,61.50
2019-05-23T02:24:57.117Z,53.17
2019-05-23T02:27:26.716Z,50.10
2019-05-23T02:29:55.248Z,52.57
2019-05-23T02:32:23.611Z,54.27
2019-05-23T02:34:52.639Z,48.40
2019-05-23T02:37:28.952Z,38.23
2019-05-23T02:39:58.799Z,49.30
2019-05-23T02:42:40.987Z,61.30
2019-05-23T02:45:10.899Z,53.43
2019-05-23T02:47:39.833Z,49.73
2019-05-23T02:50:11.217Z,53.77
2019-05-23T02:52:42.115Z,45.87
2019-05-23T02:55:12.415Z,49.53
2019-05-23T02:57:40.628Z,51.57
2019-05-23T03:00:26.889Z,52.33
2019-05-23T03:02:58.283Z,48.70
2019-05-23T03:05:27.522Z,50.43
2019-05-23T03:07:58.957Z,42.60
2019-05-23T03:10:28.694Z,48.57
2019-05-23T03:12:58.468Z,49.90
2019-05-23T03:15:27.363Z,42.27
2019-05-23T03:17:58.162Z,42.53
2019-05-23T03:20:26.352Z,48.50
2019-05-23T03:22:56.137Z,46.40
2019-05-23T03:25:35.350Z,48.00
2019-05-23T03:28:05.427Z,46.60
2019-05-23T03:30:38.151Z,49.97
2019-05-23T03:33:11.811Z,50.60
2019-05-23T03:35:41.851Z,40.00
2019-05-23T03:38:10.868Z,40.03
2019-05-23T03:40:39.911Z,35.87
2019-05-23T03:43:09.071Z,54.33
2019-05-23T03:45:39.709Z,43.27
2019-05-23T03:48:08.532Z,52.00
2019-05-23T03:50:37.008Z,49.47
2019-05-23T03:53:07.212Z,51.00
2019-05-23T03:55:36.168Z,50.93
2019-05-23T03:58:04.831Z,48.63
2019-05-23T04:00:35.856Z,60.37
2019-05-23T04:03:04.193Z,56.60
2019-05-23T04:05:34.814Z,54.03
2019-05-23T04:08:03.863Z,38.43
2019-05-23T04:10:32.057Z,39.23
2019-05-23T04:13:00.421Z,36.20
2019-05-23T04:15:29.274Z,38.90
2019-05-23T04:17:57.630Z,32.30
2019-05-23T04:20:25.996Z,22.90
2019-05-23T04:22:54.684Z,21.77
2019-05-23T04:25:22.870Z,21.03
2019-05-23T04:27:51.059Z,15.13
2019-05-23T04:30:19.278Z,16.60
2019-05-23T04:32:47.978Z,15.83
2019-05-23T04:35:16.667Z,15.27
2019-05-23T04:37:45.815Z,14.10
2019-05-23T04:40:14.349Z,14.80
2019-05-23T04:42:42.615Z,13.63
2019-05-23T04:45:11.160Z,14.33
2019-05-23T04:47:40.512Z,12.83
2019-05-23T04:50:13.708Z,12.43
2019-05-23T04:52:42.843Z,13.23
2019-05-23T04:55:12.686Z,13.87
2019-05-23T04:57:41.134Z,13.53
2019-05-23T05:00:10.866Z,14.47
2019-05-23T05:02:39.829Z,12.00
2019-05-23T05:05:08.713Z,11.33
2019-05-23T05:07:37.541Z,10.90
2019-05-23T05:10:07.327Z,10.57
2019-05-23T05:12:35.627Z,11.63
2019-05-23T05:15:04.876Z,11.73
2019-05-23T05:17:33.251Z,10.47
2019-05-23T05:20:01.690Z,10.63
2019-05-23T05:22:30.074Z,10.60
2019-05-23T05:24:58.279Z,10.97
2019-05-23T05:27:26.532Z,12.50
2019-05-23T05:29:55.018Z,12.33
2019-05-23T05:32:23.898Z,10.77
2019-05-23T05:34:52.097Z,10.43
2019-05-23T05:37:20.303Z,12.03
2019-05-23T05:39:48.928Z,11.10
2019-05-23T05:42:17.722Z,12.40
2019-05-23T05:44:46.208Z,13.17
2019-05-23T05:47:14.789Z,12.03
2019-05-23T05:49:43.475Z,17.10
2019-05-23T05:52:11.742Z,12.57
2019-05-23T05:54:40.161Z,13.10
2019-05-23T05:57:08.370Z,14.37
2019-05-23T05:59:36.906Z,11.93
2019-05-23T06:02:06.750Z,10.87
2019-05-23T06:04:35.113Z,13.43
2019-05-23T06:07:21.395Z,10.90
2019-05-23T06:09:51.296Z,13.07
2019-05-23T06:12:20.836Z,11.90
2019-05-23T06:14:49.293Z,13.58
2019-05-23T06:17:19.394Z,12.55
2019-05-23T06:19:48.100Z,11.73
2019-05-23T06:22:17.959Z,13.03
2019-05-23T06:24:51.572Z,12.45
2019-05-23T06:27:18.035Z,14.15
2019-05-23T06:29:46.289Z,13.78
2019-05-23T06:32:16.277Z,11.80
2019-05-23T06:34:45.040Z,11.90
2019-05-23T06:37:13.730Z,14.78
2019-05-23T06:39:42.396Z,12.40
2019-05-23T06:42:10.783Z,14.13
2019-05-23T06:44:39.067Z,13.20
2019-05-23T06:47:07.634Z,12.58
2019-05-23T06:49:35.837Z,14.60
2019-05-23T06:52:04.110Z,12.28
2019-05-23T06:54:32.581Z,12.75
2019-05-23T06:57:01.059Z,14.10
2019-05-23T06:59:29.333Z,13.25
2019-05-23T07:01:58.954Z,13.30
2019-05-23T07:04:27.381Z,13.83
2019-05-23T07:06:55.650Z,15.60
2019-05-23T07:09:24.123Z,14.03
2019-05-23T07:11:53.850Z,13.32
2019-05-23T07:14:22.170Z,13.70
2019-05-23T07:16:50.540Z,15.35
2019-05-23T07:19:19.419Z,14.70
2019-05-23T07:21:47.635Z,15.38
2019-05-23T07:24:16.268Z,13.58
2019-05-23T07:26:46.335Z,10.60
2019-05-23T07:29:14.528Z,14.45
2019-05-23T07:31:42.893Z,12.75
2019-05-23T07:34:11.360Z,10.32
2019-05-23T07:36:39.718Z,11.73
2019-05-23T07:39:11.489Z,9.68
2019-05-23T07:41:39.596Z,8.53
2019-05-23T07:44:08.202Z,11.63
2019-05-23T07:46:36.448Z,11.50
2019-05-23T07:49:04.857Z,8.75
2019-05-23T07:51:33.103Z,7.70
2019-05-23T07:54:03.631Z,9.40
2019-05-23T07:56:39.724Z,8.08
2019-05-23T07:59:07.918Z,7.87
2019-05-23T08:01:37.757Z,9.83
2019-05-23T08:04:20.608Z,7.45
2019-05-23T08:06:36.238Z,7.83
2019-05-23T08:09:08.166Z,7.92
2019-05-23T08:11:36.418Z,8.65
2019-05-23T08:14:05.358Z,8.15
2019-05-23T08:16:33.636Z,7.35
2019-05-23T08:19:02.607Z,6.55
2019-05-23T08:21:30.975Z,6.83
2019-05-23T08:23:59.161Z,7.83
2019-05-23T08:26:28.566Z,6.97
2019-05-23T08:29:24.274Z,7.00
2019-05-23T08:31:27.016Z,6.33
2019-05-23T08:33:56.353Z,7.37
2019-05-23T08:36:24.596Z,6.45
2019-05-23T08:38:53.422Z,6.12
2019-05-23T08:41:21.680Z,6.80
2019-05-23T08:43:50.032Z,7.47
2019-05-23T08:46:18.370Z,5.53
2019-05-23T08:48:46.815Z,5.03
2019-05-23T08:51:15.171Z,5.35
2019-05-23T08:53:43.409Z,6.40
2019-05-23T08:56:18.789Z,5.67
2019-05-23T08:58:41.778Z,6.55
2019-05-23T09:01:09.957Z,5.25
2019-05-23T09:03:38.426Z,4.90
2019-05-23T09:06:07.107Z,5.58
2019-05-23T09:08:36.331Z,6.72
2019-05-23T09:11:04.797Z,5.87
2019-05-23T09:13:32.988Z,7.47
2019-05-23T09:16:01.475Z,4.72
2019-05-23T09:18:29.770Z,6.30
2019-05-23T09:20:58.393Z,7.62
2019-05-23T09:23:26.866Z,6.47
2019-05-23T09:25:55.103Z,7.47
2019-05-23T09:28:23.407Z,6.80
2019-05-23T09:30:51.953Z,5.78
2019-05-23T09:33:20.447Z,5.67
2019-05-23T09:35:48.824Z,6.12
2019-05-23T09:38:17.090Z,6.12
2019-05-23T09:40:45.412Z,4.92
2019-05-23T09:43:13.786Z,4.75
2019-05-23T09:45:42.506Z,4.85
2019-05-23T09:48:10.720Z,4.87
2019-05-23T09:50:38.897Z,5.90
2019-05-23T09:53:07.122Z,5.70
2019-05-23T09:55:35.590Z,6.33
2019-05-23T09:58:04.035Z,5.83
2019-05-23T10:00:33.876Z,6.37
2019-05-23T10:03:02.713Z,5.53
2019-05-23T10:05:42.807Z,5.22
2019-05-23T10:08:00.811Z,5.80
2019-05-23T10:10:29.880Z,4.95
2019-05-23T10:12:58.187Z,4.58
2019-05-23T10:15:40.320Z,4.55
2019-05-23T10:18:16.025Z,5.35
2019-05-23T10:20:44.761Z,5.10
2019-05-23T10:23:13.156Z,5.58
2019-05-23T10:25:41.396Z,5.20
2019-05-23T10:28:09.665Z,5.47
2019-05-23T10:30:37.845Z,4.80
2019-05-23T10:33:11.529Z,4.45
2019-05-23T10:35:36.478Z,4.50
2019-05-23T10:38:04.888Z,4.37
2019-05-23T10:40:33.315Z,4.90
2019-05-23T10:43:01.778Z,4.90
2019-05-23T10:45:29.968Z,5.42
2019-05-23T10:47:58.241Z,4.53
2019-05-23T10:50:26.651Z,4.62
2019-05-23T10:52:54.854Z,3.98
2019-05-23T10:55:23.033Z,4.55
2019-05-23T10:57:51.303Z,4.60
2019-05-23T11:00:23.215Z,5.55
2019-05-23T11:02:51.649Z,4.50
2019-05-23T11:05:20.726Z,4.08
2019-05-23T11:07:49.563Z,4.15
2019-05-23T11:10:17.839Z,3.58
2019-05-23T11:12:46.101Z,4.65
2019-05-23T11:15:14.773Z,4.87
2019-05-23T11:17:43.730Z,4.97
2019-05-23T11:20:12.681Z,5.37
2019-05-23T11:22:42.230Z,4.97
2019-05-23T11:25:15.079Z,8.55
2019-05-23T11:27:46.365Z,4.65
2019-05-23T11:30:16.526Z,4.85
2019-05-23T11:32:44.710Z,6.35
2019-05-23T11:35:13.590Z,4.20
2019-05-23T11:37:42.235Z,6.28
2019-05-23T11:40:10.703Z,4.10
2019-05-23T11:42:38.960Z,4.37
2019-05-23T11:45:07.493Z,7.85
2019-05-23T11:47:35.856Z,6.50
2019-05-23T11:50:05.592Z,5.40
2019-05-23T11:52:33.854Z,4.97
2019-05-23T11:55:02.238Z,4.25
2019-05-23T11:57:30.812Z,5.80
2019-05-23T11:59:59.158Z,5.42
2019-05-23T12:02:35.010Z,5.75
2019-05-23T12:05:05.728Z,4.62
2019-05-23T12:07:33.907Z,5.37
2019-05-23T12:10:02.262Z,6.00
2019-05-23T12:12:30.482Z,5.85
2019-05-23T12:14:58.818Z,7.30
2019-05-23T12:17:28.250Z,5.37
2019-05-23T12:19:56.446Z,4.85
2019-05-23T12:22:25.218Z,6.03
2019-05-23T12:24:53.407Z,6.65
2019-05-23T12:27:21.763Z,5.03
2019-05-23T12:29:50.398Z,6.47
2019-05-23T12:32:19.234Z,4.58
2019-05-23T12:35:07.956Z,6.05
2019-05-23T12:37:19.916Z,7.28
2019-05-23T12:39:47.482Z,4.65
2019-05-23T12:42:15.678Z,5.95
2019-05-23T12:44:43.860Z,5.03
2019-05-23T12:47:13.759Z,4.17
2019-05-23T12:49:43.668Z,6.50
2019-05-23T12:52:12.708Z,5.05
2019-05-23T12:54:41.370Z,4.75
2019-05-23T12:57:10.198Z,4.80
2019-05-23T12:59:38.455Z,4.90
2019-05-23T13:02:08.372Z,4.33
2019-05-23T13:04:36.567Z,5.53
2019-05-23T13:07:05.331Z,6.10
2019-05-23T13:09:33.605Z,4.75
2019-05-23T13:12:01.790Z,4.78
2019-05-23T13:14:30.017Z,5.70
2019-05-23T13:17:01.002Z,4.60
2019-05-23T13:19:28.626Z,5.28
2019-05-23T13:21:56.995Z,5.22
2019-05-23T13:24:25.960Z,4.05
2019-05-23T13:26:54.236Z,4.33
2019-05-23T13:29:24.585Z,5.30
2019-05-23T13:31:52.557Z,4.97
2019-05-23T13:34:20.751Z,5.30
2019-05-23T13:36:49.186Z,4.37
2019-05-23T13:39:17.893Z,3.70
2019-05-23T13:41:46.138Z,5.97
2019-05-23T13:44:31.951Z,4.08
2019-05-23T13:46:44.348Z,3.30
2019-05-23T13:49:12.530Z,3.27
2019-05-23T13:51:41.118Z,3.83
2019-05-23T13:54:09.310Z,3.62
2019-05-23T13:56:37.539Z,3.47
2019-05-23T13:59:06.046Z,3.72
2019-05-23T14:01:34.240Z,5.50
2019-05-23T14:04:02.511Z,3.12
2019-05-23T14:06:30.873Z,3.75
2019-05-23T14:08:59.066Z,4.35
2019-05-23T14:11:27.306Z,4.08
2019-05-23T14:14:00.142Z,3.75
2019-05-23T14:16:26.949Z,3.25
2019-05-23T14:18:55.158Z,4.78
2019-05-23T14:21:23.384Z,3.10
2019-05-23T14:23:51.590Z,3.65
2019-05-23T14:26:20.118Z,4.22
2019-05-23T14:28:48.447Z,4.10
2019-05-23T14:31:17.893Z,3.87
2019-05-23T14:33:50.853Z,4.35
2019-05-23T14:36:36.156Z,4.62
2019-05-23T14:39:07.504Z,3.75
2019-05-23T14:41:45.051Z,3.92
2019-05-23T14:44:07.221Z,4.65
2019-05-23T14:46:42.829Z,4.20
2019-05-23T14:49:12.821Z,5.08
2019-05-23T14:51:42.770Z,3.67
2019-05-23T14:54:29.229Z,4.75
2019-05-23T14:56:57.485Z,3.08
2019-05-23T14:59:26.932Z,3.27
2019-05-23T15:01:55.692Z,4.10
2019-05-23T15:04:24.180Z,3.20
2019-05-23T15:06:52.385Z,2.55
2019-05-23T15:09:21.713Z,4.45
2019-05-23T15:11:50.302Z,3.35
2019-05-23T15:14:18.546Z,4.58
2019-05-23T15:16:46.743Z,3.20
2019-05-23T15:19:15.020Z,3.08
2019-05-23T15:21:43.190Z,2.95
2019-05-23T15:24:11.401Z,3.08
2019-05-23T15:26:39.864Z,3.85
2019-05-23T15:29:08.056Z,4.60
2019-05-23T15:31:36.251Z,3.58
2019-05-23T15:34:04.499Z,4.47
2019-05-23T15:36:32.845Z,3.10
2019-05-23T15:39:09.317Z,3.77
2019-05-23T15:41:30.980Z,3.10
2019-05-23T15:43:59.205Z,3.70
2019-05-23T15:46:27.947Z,4.80
2019-05-23T15:48:56.200Z,4.30
2019-05-23T15:51:26.017Z,2.97
2019-05-23T15:54:10.821Z,4.60
2019-05-23T15:56:52.881Z,4.03
2019-05-23T15:59:22.731Z,3.10
2019-05-23T16:01:52.827Z,3.27
2019-05-23T16:04:24.979Z,2.70
2019-05-23T16:06:53.222Z,3.00
2019-05-23T16:09:29.293Z,3.63
2019-05-23T16:11:51.802Z,3.67
2019-05-23T16:14:20.660Z,3.43
2019-05-23T16:16:48.848Z,3.07
2019-05-23T16:19:17.160Z,2.70
2019-05-23T16:21:45.396Z,3.57
2019-05-23T16:24:13.953Z,3.43
2019-05-23T16:26:42.164Z,2.93
2019-05-23T16:29:11.714Z,4.63
2019-05-23T16:31:39.979Z,4.03
2019-05-23T16:34:08.185Z,4.87
2019-05-23T16:36:36.410Z,3.47
2019-05-23T16:39:06.369Z,5.50
2019-05-23T16:41:34.626Z,4.23
2019-05-23T16:44:03.138Z,3.53
2019-05-23T16:46:31.349Z,9.20
2019-05-23T16:48:59.592Z,6.03
2019-05-23T16:51:27.807Z,5.30
2019-05-23T16:53:56.447Z,4.57
2019-05-23T16:56:26.566Z,3.00
2019-05-23T16:58:56.401Z,4.93
2019-05-23T17:01:47.097Z,2.40
2019-05-23T17:04:15.645Z,4.30
2019-05-23T17:06:45.656Z,5.03
2019-05-23T17:09:15.498Z,2.87
2019-05-23T17:11:47.985Z,4.03
2019-05-23T17:14:17.889Z,4.70
2019-05-23T17:16:53.434Z,4.67
2019-05-23T17:19:33.038Z,4.77
2019-05-23T17:22:15.218Z,4.87
2019-05-23T17:24:54.495Z,6.33
2019-05-23T17:27:40.686Z,5.20
2019-05-23T17:30:13.697Z,5.90
2019-05-23T17:32:41.958Z,9.13
2019-05-23T17:35:11.745Z,7.23
2019-05-23T17:37:39.979Z,4.40
2019-05-23T17:40:23.459Z,4.53
2019-05-23T17:42:38.622Z,4.23
2019-05-23T17:45:06.975Z,3.50
2019-05-23T17:47:36.046Z,5.20
2019-05-23T17:50:07.838Z,4.97
2019-05-23T17:52:36.011Z,5.53
2019-05-23T17:55:05.491Z,4.53
2019-05-23T17:57:33.695Z,3.87
2019-05-23T18:00:02.017Z,3.03
2019-05-23T18:02:30.211Z,5.33
2019-05-23T18:04:58.454Z,4.77
2019-05-23T18:07:27.130Z,3.67
2019-05-23T18:09:55.314Z,3.83
2019-05-23T18:12:23.784Z,3.57
2019-05-23T18:14:52.774Z,3.90
2019-05-23T18:17:21.020Z,3.97
2019-05-23T18:19:49.232Z,4.03
2019-05-23T18:22:18.313Z,6.43
2019-05-23T18:24:47.169Z,6.03
2019-05-23T18:27:15.594Z,4.90
2019-05-23T18:29:43.782Z,4.00
2019-05-23T18:32:13.894Z,5.00
2019-05-23T18:34:42.085Z,4.07
2019-05-23T18:37:10.686Z,4.63
2019-05-23T18:39:39.650Z,3.73
2019-05-23T18:42:08.001Z,4.87
2019-05-23T18:44:36.206Z,12.30
2019-05-23T18:47:06.119Z,5.73
2019-05-23T18:49:34.299Z,7.13
2019-05-23T18:52:03.248Z,9.37
2019-05-23T18:54:31.434Z,4.57
2019-05-23T18:56:59.623Z,3.97
2019-05-23T18:59:27.991Z,6.10
2019-05-23T19:01:56.203Z,5.10
2019-05-23T19:04:24.425Z,4.80
2019-05-23T19:06:52.784Z,6.37
2019-05-23T19:09:21.962Z,3.97
2019-05-23T19:11:50.226Z,11.20
2019-05-23T19:14:18.500Z,5.43
2019-05-23T19:16:47.070Z,7.33
2019-05-23T19:19:15.607Z,7.73
2019-05-23T19:21:44.359Z,10.27
2019-05-23T19:24:12.546Z,9.50
2019-05-23T19:26:41.174Z,5.60
2019-05-23T19:29:09.692Z,5.00
2019-05-23T19:31:38.048Z,7.40
2019-05-23T19:34:06.797Z,10.00
2019-05-23T19:36:35.189Z,8.50
2019-05-23T19:39:05.518Z,10.07
2019-05-23T19:41:37.820Z,5.03
2019-05-23T19:44:04.993Z,4.53
2019-05-23T19:46:33.398Z,6.37
2019-05-23T19:49:01.857Z,11.50
2019-05-23T19:51:30.183Z,7.97
2019-05-23T19:53:59.318Z,10.67
2019-05-23T19:56:27.698Z,12.00
2019-05-23T19:58:56.401Z,7.70
2019-05-23T20:01:26.268Z,7.83
2019-05-23T20:03:54.727Z,6.90
2019-05-23T20:06:23.464Z,7.17
2019-05-23T20:08:52.386Z,8.53
2019-05-23T20:11:20.659Z,8.07
2019-05-23T20:13:48.919Z,7.80
2019-05-23T20:16:17.099Z,8.40
2019-05-23T20:18:45.298Z,9.47
2019-05-23T20:21:13.491Z,9.50
2019-05-23T20:23:41.715Z,11.73
2019-05-23T20:26:10.167Z,10.43
2019-05-23T20:28:40.085Z,10.20
2019-05-23T20:31:08.898Z,10.47
2019-05-23T20:33:37.078Z,10.17
2019-05-23T20:36:11.035Z,11.73
2019-05-23T20:38:37.108Z,9.63
2019-05-23T20:41:05.328Z,14.13
2019-05-23T20:43:33.580Z,13.20
2019-05-23T20:46:01.895Z,13.47
2019-05-23T20:48:30.298Z,13.37
2019-05-23T20:50:58.653Z,12.60
2019-05-23T20:53:26.844Z,10.43
2019-05-23T20:55:55.032Z,10.43
2019-05-23T20:58:23.225Z,11.10
2019-05-23T21:00:53.062Z,14.50
2019-05-23T21:03:21.618Z,15.73
2019-05-23T21:05:49.876Z,16.10
2019-05-23T21:08:18.155Z,12.97
2019-05-23T21:10:47.447Z,11.27
2019-05-23T21:13:16.269Z,12.77
2019-05-23T21:15:44.650Z,13.50
2019-05-23T21:18:13.041Z,14.13
2019-05-23T21:20:41.794Z,12.10
2019-05-23T21:23:09.993Z,13.83
2019-05-23T21:25:39.851Z,13.70
2019-05-23T21:28:08.038Z,13.93
2019-05-23T21:30:36.329Z,13.23
2019-05-23T21:33:05.096Z,12.93
2019-05-23T21:35:33.737Z,16.63
2019-05-23T21:38:01.938Z,18.53
2019-05-23T21:40:31.833Z,16.23
2019-05-23T21:43:00.199Z,12.90
2019-05-23T21:45:28.393Z,13.60
2019-05-23T21:47:56.582Z,12.50
2019-05-23T21:50:24.850Z,11.57
2019-05-23T21:52:53.039Z,14.00
2019-05-23T21:55:32.045Z,13.67
2019-05-23T21:58:00.290Z,10.90
2019-05-23T22:00:31.668Z,11.03
2019-05-23T22:03:00.316Z,12.97
2019-05-23T22:05:28.502Z,15.73
2019-05-23T22:08:08.254Z,11.23
2019-05-23T22:10:36.545Z,12.53
2019-05-23T22:13:05.040Z,14.77
2019-05-23T22:15:36.354Z,13.27
2019-05-23T22:18:04.557Z,13.40
2019-05-23T22:20:34.042Z,12.80
2019-05-23T22:23:02.225Z,13.67
2019-05-23T22:25:31.600Z,12.63
2019-05-23T22:27:59.957Z,12.20
2019-05-23T22:30:28.285Z,11.93
2019-05-23T22:32:56.482Z,13.80
2019-05-23T22:35:24.847Z,15.63
2019-05-23T22:37:53.054Z,19.97
2019-05-23T22:40:21.236Z,17.37
2019-05-23T22:42:49.460Z,16.87
2019-05-23T22:45:19.287Z,15.80
2019-05-23T22:47:47.485Z,15.37
2019-05-23T22:50:15.744Z,14.90
2019-05-23T22:52:44.003Z,16.00
2019-05-23T22:55:12.351Z,13.13
2019-05-23T22:57:40.670Z,14.97
2019-05-23T23:00:09.198Z,14.83
2019-05-23T23:02:37.414Z,14.93
2019-05-23T23:05:05.667Z,13.57
2019-05-23T23:07:33.859Z,32.47
2019-05-23T23:10:02.057Z,15.43
2019-05-23T23:12:30.258Z,17.93
2019-05-23T23:14:58.654Z,17.97
2019-05-23T23:17:26.879Z,18.37
2019-05-23T23:19:55.058Z,15.23
2019-05-23T23:22:23.261Z,15.67
2019-05-23T23:24:51.451Z,16.70
2019-05-23T23:27:19.657Z,17.07
2019-05-23T23:29:47.858Z,16.80
2019-05-23T23:32:16.354Z,13.67
2019-05-23T23:34:44.553Z,15.57
2019-05-23T23:37:12.879Z,16.90
2019-05-23T23:39:41.198Z,17.07
2019-05-23T23:42:09.863Z,17.17
2019-05-23T23:44:37.458Z,15.07
2019-05-23T23:47:24.140Z,15.80
2019-05-23T23:50:10.764Z,14.97
2019-05-23T23:52:57.407Z,17.10
2019-05-23T23:55:44.260Z,12.47
2019-05-23T23:58:12.030Z,19.07
